Time;durP1;ratioP1;P1;durP2;ratioP2;P2;SDS_P1;SDS_P2;PMS_P1;PMS_P2;Temp;Humidity;BMP_temperature;BMP_pressure;BME280_temperature;BME280_humidity;BME280_pressure;Samples;Min_cycle;Max_cycle;Signal;HPM_P1;HPM_P2
2023/09/29 00:00:17;;;;;;;8.10;4.90;;;20.10;96.70;;;;;;5013381;28;20095;-81
2023/09/29 00:02:47;;;;;;;8.30;4.57;;;20.00;96.70;;;;;;5005113;28;20050;-81
2023/09/29 00:05:17;;;;;;;5.75;5.00;;;19.90;96.70;;;;;;4989897;28;20038;-81
2023/09/29 00:07:51;;;;;;;7.57;4.97;;;19.90;96.70;;;;;;5008040;28;20136;-80
2023/09/29 00:10:21;;;;;;;6.05;4.40;;;19.70;96.70;;;;;;5008098;28;20065;-81
2023/09/29 00:12:50;;;;;;;6.63;4.80;;;19.60;96.70;;;;;;5002147;28;20064;-80
2023/09/29 00:15:19;;;;;;;9.13;4.68;;;19.60;96.70;;;;;;5007767;28;20037;-81
2023/09/29 00:17:47;;;;;;;7.55;4.47;;;19.50;96.70;;;;;;5011495;28;20056;-80
2023/09/29 00:20:24;;;;;;;9.00;4.65;;;19.50;96.70;;;;;;5006455;28;20092;-80
2023/09/29 00:22:56;;;;;;;7.50;4.35;;;19.50;96.70;;;;;;5008500;28;20583;-80
2023/09/29 00:25:24;;;;;;;6.43;4.68;;;19.40;96.70;;;;;;5009020;28;20735;-81
2023/09/29 00:27:53;;;;;;;7.35;4.90;;;19.40;96.70;;;;;;5006363;28;20045;-80
2023/09/29 00:30:21;;;;;;;7.63;4.57;;;19.30;96.70;;;;;;5008980;28;20050;-81
2023/09/29 00:32:50;;;;;;;9.13;4.28;;;19.20;96.70;;;;;;5007581;28;20470;-80
2023/09/29 00:37:54;;;;;;;10.82;5.25;;;19.20;96.70;;;;;;5011099;28;20060;-80
2023/09/29 00:40:22;;;;;;;6.72;4.43;;;19.20;96.70;;;;;;4998518;28;20104;-80
2023/09/29 00:42:52;;;;;;;6.38;4.60;;;19.10;96.70;;;;;;4989448;28;20050;-79
2023/09/29 00:45:25;;;;;;;5.75;4.47;;;19.10;96.70;;;;;;5005427;28;20221;-80
2023/09/29 00:47:57;;;;;;;5.30;3.95;;;19.10;96.70;;;;;;5011363;28;20057;-81
2023/09/29 00:50:29;;;;;;;6.57;4.53;;;19.10;96.70;;;;;;4990324;28;20041;-81
2023/09/29 00:53:04;;;;;;;6.07;4.40;;;19.10;96.70;;;;;;5006354;28;20071;-81
2023/09/29 00:55:32;;;;;;;6.07;4.22;;;19.10;96.70;;;;;;4986946;28;20043;-80
2023/09/29 00:58:01;;;;;;;5.35;4.68;;;19.10;96.70;;;;;;5006484;28;20046;-81
2023/09/29 01:00:30;;;;;;;5.88;4.28;;;19.10;96.70;;;;;;5006897;28;20073;-81
2023/09/29 01:02:59;;;;;;;6.85;4.22;;;19.20;96.70;;;;;;5014337;28;20033;-80
2023/09/29 01:05:32;;;;;;;6.43;4.70;;;19.10;96.70;;;;;;5035615;28;20034;-80
2023/09/29 01:08:08;;;;;;;5.28;4.20;;;19.00;96.70;;;;;;5009097;28;20096;-81
2023/09/29 01:10:37;;;;;;;8.82;4.78;;;19.00;96.70;;;;;;5006978;28;20045;-82
2023/09/29 01:13:05;;;;;;;6.72;3.92;;;19.00;96.70;;;;;;5011746;28;20076;-81
2023/09/29 01:15:34;;;;;;;7.03;4.60;;;19.10;96.70;;;;;;5005776;28;20050;-81
2023/09/29 01:18:03;;;;;;;6.10;4.93;;;19.10;96.70;;;;;;5009706;28;20042;-81
2023/09/29 01:20:32;;;;;;;6.57;4.65;;;19.10;96.70;;;;;;5010481;28;20049;-81
2023/09/29 01:23:03;;;;;;;7.85;4.82;;;19.00;96.70;;;;;;5005560;28;20056;-81
2023/09/29 01:25:33;;;;;;;5.80;4.57;;;19.00;96.70;;;;;;5015030;28;20057;-81
2023/09/29 01:28:05;;;;;;;7.20;4.82;;;19.00;96.70;;;;;;4995940;28;20168;-81
2023/09/29 01:30:34;;;;;;;5.15;4.30;;;19.00;96.70;;;;;;4992999;28;20053;-82
2023/09/29 01:33:02;;;;;;;7.55;4.90;;;19.00;96.70;;;;;;5009310;28;20057;-81
2023/09/29 01:35:30;;;;;;;7.80;4.78;;;19.00;96.70;;;;;;5006817;28;20049;-81
2023/09/29 01:38:01;;;;;;;6.03;4.13;;;18.90;96.70;;;;;;5009708;28;20087;-81
2023/09/29 01:40:29;;;;;;;10.13;4.60;;;18.80;96.70;;;;;;4987711;28;20049;-80
2023/09/29 01:42:59;;;;;;;8.25;4.88;;;18.80;96.70;;;;;;5006556;28;20551;-81
2023/09/29 01:45:27;;;;;;;7.93;5.32;;;18.70;96.70;;;;;;4991498;28;20069;-81
2023/09/29 01:47:55;;;;;;;7.05;5.22;;;18.80;96.70;;;;;;5005252;28;20061;-81
2023/09/29 01:50:24;;;;;;;8.10;5.25;;;18.90;96.70;;;;;;5009393;28;20495;-81
2023/09/29 01:52:53;;;;;;;5.18;4.68;;;18.90;96.70;;;;;;5015787;28;20128;-81
2023/09/29 01:55:23;;;;;;;5.70;4.85;;;18.90;96.70;;;;;;5011559;28;20065;-81
2023/09/29 01:57:55;;;;;;;7.45;4.93;;;18.80;96.70;;;;;;5004559;28;20046;-81
2023/09/29 02:00:28;;;;;;;7.13;5.00;;;18.80;96.70;;;;;;5006243;28;20642;-81
2023/09/29 02:02:59;;;;;;;5.00;4.50;;;18.70;96.70;;;;;;4989170;28;20389;-80
2023/09/29 02:05:28;;;;;;;5.47;4.47;;;18.60;96.70;;;;;;4994931;28;20045;-81
2023/09/29 02:07:59;;;;;;;4.90;4.40;;;18.60;96.70;;;;;;5008365;28;20046;-81
2023/09/29 02:10:27;;;;;;;5.90;4.57;;;18.60;96.70;;;;;;4990664;28;20054;-80
2023/09/29 02:12:57;;;;;;;6.55;4.75;;;18.60;96.70;;;;;;5015433;28;20041;-79
2023/09/29 02:15:29;;;;;;;8.85;4.97;;;18.60;96.70;;;;;;5005934;28;20108;-81
2023/09/29 02:17:58;;;;;;;6.15;4.60;;;18.60;96.70;;;;;;5000678;28;20384;-81
2023/09/29 02:20:32;;;;;;;7.20;4.60;;;18.50;96.70;;;;;;4991734;28;20107;-80
2023/09/29 02:23:02;;;;;;;5.10;4.13;;;18.50;96.70;;;;;;5006669;28;20535;-80
2023/09/29 02:25:30;;;;;;;6.90;3.92;;;18.40;96.70;;;;;;5005202;28;20277;-80
2023/09/29 02:27:59;;;;;;;6.22;4.55;;;18.30;96.70;;;;;;5008564;28;20052;-81
2023/09/29 02:30:29;;;;;;;5.10;4.38;;;18.30;96.70;;;;;;5011776;28;20083;-80
2023/09/29 02:32:58;;;;;;;7.25;4.53;;;18.30;96.70;;;;;;5007603;28;20524;-81
2023/09/29 02:35:26;;;;;;;5.32;4.45;;;18.30;96.70;;;;;;5009575;28;20065;-81
2023/09/29 02:37:54;;;;;;;10.55;4.53;;;18.20;96.70;;;;;;5012550;28;20140;-80
2023/09/29 02:40:23;;;;;;;5.13;4.63;;;18.20;96.70;;;;;;4991190;28;20598;-79
2023/09/29 02:42:52;;;;;;;6.47;4.13;;;18.20;96.70;;;;;;5011725;28;20154;-81
2023/09/29 02:45:20;;;;;;;6.70;4.43;;;18.30;96.70;;;;;;5011722;28;20132;-81
2023/09/29 02:47:49;;;;;;;6.68;4.40;;;18.30;96.70;;;;;;5015547;28;20412;-81
2023/09/29 02:50:18;;;;;;;7.18;4.68;;;18.40;96.70;;;;;;4999723;28;20091;-81
2023/09/29 02:52:46;;;;;;;8.23;5.05;;;18.30;96.70;;;;;;5007878;28;20129;-81
2023/09/29 02:55:14;;;;;;;5.32;4.68;;;18.30;96.70;;;;;;4995008;28;20045;-81
2023/09/29 02:57:44;;;;;;;7.10;5.22;;;18.30;96.70;;;;;;4999663;28;20129;-81
2023/09/29 03:00:19;;;;;;;5.90;5.40;;;18.30;96.70;;;;;;4992899;28;20053;-81
2023/09/29 03:02:53;;;;;;;7.43;4.88;;;18.30;96.70;;;;;;4989533;28;20054;-81
2023/09/29 03:05:22;;;;;;;7.32;4.82;;;18.30;96.70;;;;;;4994713;28;20376;-80
2023/09/29 03:07:50;;;;;;;6.60;4.90;;;18.30;96.70;;;;;;5009039;28;20054;-80
2023/09/29 03:10:26;;;;;;;6.95;4.75;;;18.20;96.70;;;;;;5011020;28;20038;-81
2023/09/29 03:12:56;;;;;;;6.32;4.35;;;18.30;96.70;;;;;;4989267;28;20046;-79
2023/09/29 03:15:26;;;;;;;9.45;4.90;;;18.20;96.70;;;;;;5011753;28;20123;-80
2023/09/29 03:17:56;;;;;;;7.28;4.82;;;18.20;96.70;;;;;;5006072;28;20038;-81
2023/09/29 03:20:27;;;;;;;8.57;5.05;;;18.20;96.70;;;;;;5005223;28;20129;-80
2023/09/29 03:22:58;;;;;;;7.93;4.80;;;18.20;96.70;;;;;;5004819;28;20506;-81
2023/09/29 03:25:27;;;;;;;6.93;4.85;;;18.20;96.70;;;;;;5008071;28;21339;-80
2023/09/29 03:27:54;;;;;;;5.20;4.35;;;18.10;96.70;;;;;;5005990;28;20045;-81
2023/09/29 03:30:22;;;;;;;6.75;5.10;;;18.00;96.70;;;;;;5007247;28;20045;-80
2023/09/29 03:32:52;;;;;;;7.00;4.45;;;18.00;96.70;;;;;;4989144;28;20041;-80
2023/09/29 03:35:22;;;;;;;8.13;4.35;;;18.00;96.70;;;;;;5005624;28;20403;-81
2023/09/29 03:37:50;;;;;;;6.50;4.57;;;17.90;96.70;;;;;;5005055;28;20046;-81
2023/09/29 03:40:19;;;;;;;5.63;4.93;;;17.90;96.70;;;;;;4989680;28;20060;-81
2023/09/29 03:42:47;;;;;;;6.90;4.60;;;17.90;96.70;;;;;;4989732;28;20427;-81
2023/09/29 03:45:15;;;;;;;5.10;4.57;;;17.90;96.70;;;;;;5005370;28;20072;-81
2023/09/29 03:47:43;;;;;;;6.25;3.95;;;17.80;96.70;;;;;;5007215;28;20108;-81
2023/09/29 03:50:11;;;;;;;4.72;4.10;;;17.70;96.70;;;;;;4979047;28;20050;-80
2023/09/29 03:52:42;;;;;;;5.43;4.60;;;17.60;96.70;;;;;;5002555;28;20068;-80
2023/09/29 03:55:12;;;;;;;7.25;4.35;;;17.70;96.70;;;;;;5006284;28;20053;-80
2023/09/29 03:57:41;;;;;;;6.65;4.57;;;17.70;96.70;;;;;;5004623;28;20380;-80
2023/09/29 04:00:12;;;;;;;7.90;5.47;;;17.70;96.70;;;;;;5004767;28;20061;-81
2023/09/29 04:02:41;;;;;;;5.30;4.65;;;17.70;96.70;;;;;;5005150;28;20049;-81
2023/09/29 04:05:10;;;;;;;8.57;5.00;;;17.60;96.70;;;;;;5004556;28;20112;-79
2023/09/29 04:07:39;;;;;;;5.25;4.68;;;17.60;96.70;;;;;;5003714;28;20526;-79
2023/09/29 04:10:12;;;;;;;9.20;4.78;;;17.70;96.70;;;;;;5006466;28;20084;-79
2023/09/29 04:12:42;;;;;;;6.25;4.80;;;17.60;96.70;;;;;;5005683;28;20057;-80
2023/09/29 04:15:10;;;;;;;6.78;5.03;;;17.60;96.70;;;;;;5004996;28;20518;-79
2023/09/29 04:17:39;;;;;;;8.25;4.80;;;17.50;96.70;;;;;;5005256;28;20397;-80
2023/09/29 04:20:08;;;;;;;6.28;4.63;;;17.50;96.70;;;;;;5006772;28;20479;-78
2023/09/29 04:22:37;;;;;;;6.32;4.75;;;17.50;96.70;;;;;;4987309;28;20371;-79
2023/09/29 04:25:10;;;;;;;7.72;5.10;;;17.40;96.70;;;;;;4987910;28;20176;-80
2023/09/29 04:27:39;;;;;;;6.95;4.82;;;17.30;96.70;;;;;;5004405;28;20050;-79
2023/09/29 04:30:09;;;;;;;7.10;5.30;;;17.40;96.70;;;;;;5004528;28;20041;-79
2023/09/29 04:32:38;;;;;;;8.45;5.05;;;17.40;96.70;;;;;;5004210;28;20050;-79
2023/09/29 04:35:07;;;;;;;6.07;5.40;;;17.40;96.70;;;;;;4986661;28;20052;-80
2023/09/29 04:37:35;;;;;;;9.13;5.55;;;17.30;96.70;;;;;;5005090;28;20083;-79
2023/09/29 04:40:04;;;;;;;6.80;5.18;;;17.30;96.70;;;;;;5006536;28;20045;-79
2023/09/29 04:42:34;;;;;;;8.02;5.95;;;17.20;96.70;;;;;;5004463;28;20057;-79
2023/09/29 04:45:03;;;;;;;7.93;5.40;;;17.20;96.70;;;;;;5005715;28;20041;-79
2023/09/29 04:47:32;;;;;;;6.57;5.13;;;17.30;96.70;;;;;;5005306;28;20496;-79
2023/09/29 04:50:00;;;;;;;8.05;5.35;;;17.30;96.70;;;;;;5003905;28;20119;-80
2023/09/29 04:52:29;;;;;;;6.60;5.53;;;17.30;96.70;;;;;;5005261;28;21082;-79
2023/09/29 04:54:57;;;;;;;7.43;5.22;;;17.30;96.70;;;;;;5004420;28;20042;-79
2023/09/29 04:57:25;;;;;;;9.63;5.38;;;17.20;96.70;;;;;;5004305;28;20046;-80
2023/09/29 04:59:55;;;;;;;6.22;5.47;;;17.20;96.70;;;;;;5004358;28;20528;-79
2023/09/29 05:02:24;;;;;;;9.02;5.40;;;17.20;96.70;;;;;;4987855;28;20495;-79
2023/09/29 05:04:53;;;;;;;9.07;6.15;;;17.20;96.70;;;;;;5003903;28;20044;-80
2023/09/29 05:07:21;;;;;;;7.03;5.35;;;17.20;96.70;;;;;;5003621;28;20542;-79
2023/09/29 05:09:49;;;;;;;9.75;5.68;;;17.20;96.70;;;;;;5005531;28;20048;-79
2023/09/29 05:12:18;;;;;;;7.82;5.95;;;17.20;96.70;;;;;;5004742;28;20116;-80
2023/09/29 05:14:47;;;;;;;8.60;5.07;;;17.10;96.70;;;;;;5003517;28;20100;-80
2023/09/29 05:17:16;;;;;;;7.25;5.65;;;17.10;96.70;;;;;;5003911;28;20160;-80
2023/09/29 05:19:45;;;;;;;8.93;5.93;;;17.00;96.70;;;;;;5003889;28;20543;-79
2023/09/29 05:22:13;;;;;;;9.07;5.10;;;17.00;96.70;;;;;;5003604;28;20049;-79
2023/09/29 05:24:42;;;;;;;9.23;5.90;;;17.10;96.70;;;;;;5002016;28;20056;-79
2023/09/29 05:27:10;;;;;;;9.68;5.65;;;17.00;96.70;;;;;;5004082;28;20046;-79
2023/09/29 05:29:40;;;;;;;10.90;5.78;;;17.10;96.70;;;;;;4987879;28;20091;-79
2023/09/29 05:32:08;;;;;;;10.18;5.85;;;17.10;96.70;;;;;;5004102;28;20476;-78
2023/09/29 05:34:39;;;;;;;9.60;6.00;;;17.10;96.70;;;;;;5004506;28;20050;-79
2023/09/29 05:37:07;;;;;;;11.25;5.90;;;17.20;96.70;;;;;;5005086;28;20054;-79
2023/09/29 05:39:35;;;;;;;10.18;5.55;;;17.20;96.70;;;;;;5005026;28;20073;-79
2023/09/29 05:42:04;;;;;;;7.07;5.13;;;17.10;96.70;;;;;;5004406;28;20065;-78
2023/09/29 05:44:32;;;;;;;9.88;5.95;;;17.10;96.70;;;;;;5003775;28;20084;-80
2023/09/29 05:47:00;;;;;;;10.15;5.65;;;17.20;96.70;;;;;;5009558;28;20050;-79
2023/09/29 05:49:29;;;;;;;11.02;6.07;;;17.20;96.70;;;;;;5009681;28;20463;-79
2023/09/29 05:51:58;;;;;;;10.00;5.75;;;17.20;96.70;;;;;;5007627;28;20128;-80
2023/09/29 05:54:26;;;;;;;8.55;5.53;;;17.30;96.70;;;;;;4990929;28;20450;-79
2023/09/29 05:56:55;;;;;;;10.00;6.43;;;17.30;96.70;;;;;;4990566;28;20429;-80
2023/09/29 05:59:23;;;;;;;8.65;6.55;;;17.30;96.70;;;;;;5007443;28;20119;-79
2023/09/29 06:01:52;;;;;;;12.48;6.50;;;17.40;96.70;;;;;;5011243;28;20116;-80
2023/09/29 06:04:39;;;;;;;12.07;6.60;;;17.40;96.70;;;;;;4987857;28;20069;-80
2023/09/29 06:07:09;;;;;;;8.23;5.68;;;17.30;96.70;;;;;;5008056;28;20069;-78
2023/09/29 06:09:37;;;;;;;10.80;6.22;;;17.30;96.70;;;;;;4998800;28;20069;-79
2023/09/29 06:12:06;;;;;;;11.35;6.78;;;17.40;96.70;;;;;;5005368;28;20038;-80
2023/09/29 06:14:34;;;;;;;13.35;6.55;;;17.30;96.70;;;;;;5007306;28;20046;-79
2023/09/29 06:17:03;;;;;;;10.98;7.03;;;17.40;96.70;;;;;;5007851;28;20049;-79
2023/09/29 06:19:31;;;;;;;12.88;6.55;;;17.40;96.70;;;;;;5006980;28;20089;-79
2023/09/29 06:22:00;;;;;;;9.50;6.22;;;17.40;96.70;;;;;;5007331;28;20419;-79
2023/09/29 06:24:30;;;;;;;9.52;5.40;;;17.50;96.70;;;;;;5006545;28;20046;-79
2023/09/29 06:26:58;;;;;;;8.60;6.47;;;17.60;96.70;;;;;;5007922;28;20107;-80
2023/09/29 06:29:27;;;;;;;7.07;5.47;;;17.60;96.70;;;;;;5009487;28;20037;-79
2023/09/29 06:31:56;;;;;;;7.72;5.65;;;17.80;96.70;;;;;;4990682;28;20062;-79
2023/09/29 06:34:24;;;;;;;6.28;5.60;;;17.70;96.70;;;;;;5010936;28;20037;-80
2023/09/29 06:36:52;;;;;;;8.52;5.93;;;17.60;96.70;;;;;;5007050;28;20427;-81
2023/09/29 06:39:20;;;;;;;7.97;5.95;;;17.60;96.70;;;;;;4990706;28;20038;-81
2023/09/29 06:41:50;;;;;;;8.13;6.18;;;17.60;96.70;;;;;;5011634;28;20049;-80
2023/09/29 06:44:19;;;;;;;8.73;5.97;;;17.60;96.70;;;;;;5006293;28;20048;-79
2023/09/29 06:46:47;;;;;;;8.00;6.47;;;17.70;96.70;;;;;;5007277;28;20092;-80
2023/09/29 06:49:16;;;;;;;7.00;6.28;;;17.80;96.70;;;;;;5014181;28;21074;-79
2023/09/29 06:51:44;;;;;;;8.48;6.15;;;17.80;96.70;;;;;;5007009;28;20061;-79
2023/09/29 06:54:13;;;;;;;10.10;6.78;;;17.80;96.70;;;;;;5008693;28;20046;-81
2023/09/29 06:56:41;;;;;;;10.63;6.40;;;17.80;96.70;;;;;;4990773;28;20139;-81
2023/09/29 06:59:11;;;;;;;9.35;6.38;;;17.90;96.70;;;;;;5007966;28;20053;-82
2023/09/29 07:01:40;;;;;;;10.40;6.25;;;17.90;96.70;;;;;;5008957;28;20057;-82
2023/09/29 07:04:09;;;;;;;12.23;8.13;;;18.10;96.70;;;;;;5009668;28;20038;-81
2023/09/29 07:06:38;;;;;;;13.65;7.60;;;18.30;96.70;;;;;;5007587;28;20042;-80
2023/09/29 07:09:07;;;;;;;10.98;7.30;;;18.30;96.70;;;;;;4991237;28;20072;-80
2023/09/29 07:11:35;;;;;;;18.05;8.18;;;18.40;96.70;;;;;;5008839;28;20046;-82
2023/09/29 07:14:04;;;;;;;15.07;7.82;;;18.50;96.70;;;;;;5006450;28;20081;-81
2023/09/29 07:16:34;;;;;;;13.55;7.80;;;18.50;96.70;;;;;;5007978;28;20045;-80
2023/09/29 07:19:03;;;;;;;13.73;8.38;;;18.60;96.70;;;;;;5006103;28;20057;-80
2023/09/29 07:21:31;;;;;;;13.90;7.90;;;18.60;96.70;;;;;;5006636;28;20038;-80
2023/09/29 07:23:59;;;;;;;12.20;8.68;;;18.70;96.70;;;;;;5006792;28;20073;-80
2023/09/29 07:26:29;;;;;;;17.73;8.10;;;18.80;96.70;;;;;;5005801;28;20430;-79
2023/09/29 07:29:01;;;;;;;15.50;7.68;;;18.70;96.70;;;;;;5005667;28;20419;-80
2023/09/29 07:31:45;;;;;;;9.30;7.80;;;18.90;96.70;;;;;;5006430;28;20612;-79
2023/09/29 07:34:15;;;;;;;10.32;8.30;;;19.00;96.70;;;;;;5005014;28;20125;-79
2023/09/29 07:36:44;;;;;;;12.00;8.60;;;19.00;96.70;;;;;;5005586;28;20491;-80
2023/09/29 07:39:13;;;;;;;13.23;7.63;;;19.10;96.70;;;;;;5004316;28;20129;-79
2023/09/29 07:41:42;;;;;;;9.60;7.18;;;19.20;96.70;;;;;;5008439;28;20104;-80
2023/09/29 07:44:11;;;;;;;14.70;7.88;;;19.20;96.70;;;;;;5006124;28;20046;-79
2023/09/29 07:46:40;;;;;;;9.48;7.18;;;19.30;96.70;;;;;;5006430;28;20074;-79
2023/09/29 07:49:09;;;;;;;11.30;7.38;;;19.50;96.70;;;;;;5006711;28;20048;-79
2023/09/29 07:51:38;;;;;;;10.15;7.07;;;19.60;96.70;;;;;;5005629;28;20143;-80
2023/09/29 07:54:06;;;;;;;10.02;6.60;;;19.70;96.70;;;;;;5005414;28;20140;-80
2023/09/29 07:56:34;;;;;;;8.63;6.10;;;19.70;96.70;;;;;;5009091;28;20107;-84
2023/09/29 07:59:04;;;;;;;8.57;6.25;;;19.80;96.70;;;;;;4991408;28;20968;-84
2023/09/29 08:01:34;;;;;;;11.45;5.88;;;19.80;96.70;;;;;;4995508;28;20127;-82
2023/09/29 08:04:04;;;;;;;8.57;6.38;;;20.00;96.70;;;;;;5007958;28;20056;-83
2023/09/29 08:06:33;;;;;;;10.82;6.47;;;20.10;96.70;;;;;;5009727;28;20499;-83
2023/09/29 08:09:03;;;;;;;8.48;6.10;;;20.10;96.70;;;;;;5008930;28;20430;-82
2023/09/29 08:11:32;;;;;;;13.85;6.32;;;20.20;96.70;;;;;;5007511;28;20136;-82
2023/09/29 08:13:59;;;;;;;7.72;6.18;;;20.40;96.70;;;;;;5008742;28;20057;-83
2023/09/29 08:16:28;;;;;;;9.90;6.25;;;20.40;96.70;;;;;;5007726;28;20049;-83
2023/09/29 08:18:56;;;;;;;10.32;7.00;;;20.60;96.70;;;;;;5008786;28;20492;-83
2023/09/29 08:21:26;;;;;;;10.90;6.43;;;20.70;96.70;;;;;;5009261;28;20049;-83
2023/09/29 08:23:54;;;;;;;8.95;5.82;;;20.80;96.70;;;;;;4987881;28;20133;-83
2023/09/29 08:26:22;;;;;;;9.90;5.60;;;20.90;96.70;;;;;;5007093;28;20136;-82
2023/09/29 08:28:50;;;;;;;8.55;5.55;;;21.00;96.70;;;;;;5007155;28;20048;-83
2023/09/29 08:31:19;;;;;;;9.30;5.25;;;21.10;96.70;;;;;;5007141;28;20125;-83
2023/09/29 08:33:48;;;;;;;6.30;5.30;;;21.20;96.70;;;;;;5007499;28;20046;-82
2023/09/29 08:36:18;;;;;;;7.25;5.80;;;21.40;96.70;;;;;;4991368;28;20054;-82
2023/09/29 08:38:48;;;;;;;8.82;5.88;;;21.40;96.70;;;;;;5006712;28;20046;-82
2023/09/29 08:41:18;;;;;;;9.13;5.55;;;21.50;96.70;;;;;;5007163;28;20490;-82
2023/09/29 08:43:47;;;;;;;12.23;5.55;;;21.70;96.70;;;;;;5006923;28;20065;-83
2023/09/29 08:46:36;;;;;;;7.75;5.38;;;21.80;96.70;;;;;;5008608;28;20045;-83
2023/09/29 08:49:05;;;;;;;10.32;5.50;;;21.90;96.70;;;;;;5007153;28;20058;-83
2023/09/29 08:51:34;;;;;;;12.18;5.30;;;22.00;96.70;;;;;;5008437;28;20042;-82
2023/09/29 08:54:06;;;;;;;8.57;5.82;;;22.10;96.70;;;;;;5006670;28;20680;-82
2023/09/29 08:56:35;;;;;;;11.20;5.40;;;22.20;96.70;;;;;;4992105;28;20056;-83
2023/09/29 08:59:03;;;;;;;7.63;5.63;;;22.30;96.70;;;;;;5007237;28;20050;-83
2023/09/29 09:01:32;;;;;;;7.95;5.80;;;22.40;96.70;;;;;;5010002;28;20049;-84
2023/09/29 09:04:00;;;;;;;7.30;5.20;;;22.50;96.70;;;;;;4991718;28;20057;-81
2023/09/29 09:06:30;;;;;;;10.27;5.18;;;22.70;96.70;;;;;;5007020;28;20121;-82
2023/09/29 09:08:58;;;;;;;8.10;5.07;;;22.80;96.70;;;;;;5006483;28;20034;-82
2023/09/29 09:11:28;;;;;;;10.13;5.15;;;22.80;96.70;;;;;;5007784;28;20062;-82
2023/09/29 09:13:58;;;;;;;7.43;5.05;;;22.90;96.70;;;;;;5008098;28;20042;-84
2023/09/29 09:16:27;;;;;;;11.38;5.07;;;23.00;96.70;;;;;;5007533;28;20649;-82
2023/09/29 09:18:55;;;;;;;8.90;5.07;;;23.00;96.70;;;;;;5006979;28;20137;-84
2023/09/29 09:21:34;;;;;;;7.35;5.13;;;23.20;96.70;;;;;;5008080;28;20042;-84
2023/09/29 09:24:02;;;;;;;10.02;5.20;;;23.40;96.70;;;;;;4999691;28;20053;-79
2023/09/29 09:26:32;;;;;;;9.63;5.05;;;23.50;96.70;;;;;;5014640;28;20049;-80
2023/09/29 09:29:08;;;;;;;7.63;4.68;;;23.60;96.70;;;;;;5007038;28;20077;-81
2023/09/29 09:31:44;;;;;;;9.20;4.57;;;23.70;96.70;;;;;;5005614;28;20046;-80
2023/09/29 09:34:13;;;;;;;8.13;5.00;;;23.70;96.70;;;;;;4997894;28;20045;-81
2023/09/29 09:36:47;;;;;;;8.45;4.38;;;23.80;96.70;;;;;;4987365;28;20046;-79
2023/09/29 09:39:15;;;;;;;7.65;4.60;;;24.00;96.70;;;;;;5004352;28;20140;-82
2023/09/29 09:41:47;;;;;;;5.47;4.47;;;24.10;96.70;;;;;;5003705;28;20052;-80
2023/09/29 09:44:17;;;;;;;5.90;4.38;;;24.10;96.70;;;;;;4987558;28;20132;-83
2023/09/29 09:46:53;;;;;;;7.90;4.72;;;24.20;96.70;;;;;;5005821;28;20407;-81
2023/09/29 09:49:25;;;;;;;7.85;4.50;;;24.30;96.70;;;;;;5004415;28;20143;-80
2023/09/29 09:52:01;;;;;;;6.05;4.53;;;24.40;96.70;;;;;;5006692;28;20128;-82
2023/09/29 09:54:34;;;;;;;7.60;4.78;;;24.50;96.70;;;;;;5003681;28;20052;-79
2023/09/29 09:57:08;;;;;;;5.63;4.68;;;24.60;96.70;;;;;;5002510;28;20550;-79
2023/09/29 09:59:39;;;;;;;6.60;5.00;;;24.70;96.70;;;;;;5003747;28;20058;-80
2023/09/29 10:02:11;;;;;;;6.78;4.35;;;24.90;96.70;;;;;;4988412;28;20078;-80
2023/09/29 10:04:43;;;;;;;8.68;4.45;;;25.00;96.70;;;;;;5003180;28;20085;-82
2023/09/29 10:07:11;;;;;;;6.38;3.88;;;25.20;96.70;;;;;;5004369;28;20038;-81
2023/09/29 10:09:42;;;;;;;6.70;4.15;;;25.30;96.70;;;;;;5003174;28;20041;-81
2023/09/29 10:12:24;;;;;;;8.32;4.45;;;25.30;96.70;;;;;;5005386;28;20066;-81
2023/09/29 10:14:55;;;;;;;5.90;4.72;;;25.30;96.70;;;;;;5004152;28;20050;-81
2023/09/29 10:17:24;;;;;;;6.53;4.03;;;25.30;96.70;;;;;;4988167;28;20245;-80
2023/09/29 10:19:54;;;;;;;5.25;3.90;;;25.30;96.70;;;;;;5003785;28;20085;-81
2023/09/29 10:22:24;;;;;;;6.10;3.60;;;25.50;96.70;;;;;;5005769;28;20415;-80
2023/09/29 10:24:56;;;;;;;8.10;3.70;;;25.50;96.70;;;;;;5005060;28;20487;-80
2023/09/29 10:27:31;;;;;;;6.82;3.80;;;25.60;96.70;;;;;;5003405;28;20056;-80
2023/09/29 10:30:15;;;;;;;4.30;3.72;;;25.80;96.70;;;;;;4997995;28;20121;-80
2023/09/29 10:32:45;;;;;;;4.13;3.70;;;25.90;96.70;;;;;;5006215;28;20046;-81
2023/09/29 10:35:19;;;;;;;5.10;3.63;;;26.10;96.70;;;;;;5007116;28;20119;-80
2023/09/29 10:37:54;;;;;;;9.23;3.88;;;26.10;96.70;;;;;;5008085;28;20054;-81
2023/09/29 10:40:28;;;;;;;7.07;4.20;;;26.30;96.70;;;;;;5007972;28;20785;-81
2023/09/29 10:43:01;;;;;;;8.68;4.07;;;26.40;96.70;;;;;;5006568;28;20081;-80
2023/09/29 10:45:36;;;;;;;7.03;4.47;;;26.40;96.70;;;;;;5006516;28;20104;-80
2023/09/29 10:48:06;;;;;;;9.68;4.25;;;26.50;96.70;;;;;;5008006;28;20034;-80
2023/09/29 10:50:41;;;;;;;8.23;4.60;;;26.60;96.70;;;;;;5008414;28;20054;-80
2023/09/29 10:53:10;;;;;;;6.10;3.93;;;26.80;96.70;;;;;;5006346;28;20049;-80
2023/09/29 10:55:46;;;;;;;6.53;4.07;;;26.60;96.70;;;;;;5006369;28;20121;-81
2023/09/29 10:58:18;;;;;;;7.63;4.20;;;26.60;96.70;;;;;;5005981;28;20056;-80
2023/09/29 11:00:48;;;;;;;7.05;4.20;;;26.70;96.70;;;;;;5022966;28;20046;-81
2023/09/29 11:03:23;;;;;;;8.95;4.63;;;26.90;96.70;;;;;;5008083;28;20467;-80
2023/09/29 11:05:53;;;;;;;7.38;4.57;;;27.00;96.70;;;;;;4989723;28;20110;-80
2023/09/29 11:08:29;;;;;;;6.32;4.43;;;27.10;96.70;;;;;;5005459;28;20149;-79
2023/09/29 11:11:00;;;;;;;7.78;4.68;;;27.10;96.70;;;;;;4989920;28;20492;-80
2023/09/29 11:13:31;;;;;;;6.50;4.40;;;27.20;96.70;;;;;;5006254;28;20487;-81
2023/09/29 11:15:59;;;;;;;8.90;4.78;;;27.20;96.70;;;;;;5006889;28;20591;-80
2023/09/29 11:18:29;;;;;;;6.40;3.95;;;27.30;96.70;;;;;;5006568;28;20081;-80
2023/09/29 11:21:03;;;;;;;6.72;4.72;;;27.60;96.70;;;;;;5006256;28;20049;-81
2023/09/29 11:23:40;;;;;;;9.20;4.90;;;27.80;96.70;;;;;;5005015;28;20050;-80
2023/09/29 11:26:12;;;;;;;8.52;3.88;;;27.60;96.70;;;;;;5005633;28;20488;-80
2023/09/29 11:28:43;;;;;;;9.70;3.92;;;27.60;96.70;;;;;;5006976;28;20045;-80
2023/09/29 11:31:12;;;;;;;6.30;3.80;;;27.90;96.70;;;;;;5007280;28;20527;-81
2023/09/29 11:33:40;;;;;;;7.85;4.40;;;28.20;96.70;;;;;;5005853;28;20132;-80
2023/09/29 11:36:13;;;;;;;8.95;3.90;;;28.30;96.70;;;;;;5004388;28;20045;-79
2023/09/29 11:38:43;;;;;;;5.90;4.03;;;28.40;96.70;;;;;;5007550;28;20062;-80
2023/09/29 11:41:13;;;;;;;6.35;3.63;;;28.50;96.70;;;;;;5007322;28;20128;-81
2023/09/29 11:43:44;;;;;;;5.22;4.40;;;28.60;96.70;;;;;;5006429;28;20042;-81
2023/09/29 11:46:15;;;;;;;5.60;3.88;;;28.80;96.70;;;;;;5006558;28;20504;-80
2023/09/29 11:48:44;;;;;;;5.63;4.03;;;28.80;96.70;;;;;;5005246;28;20435;-80
2023/09/29 11:51:13;;;;;;;5.25;3.70;;;28.80;96.70;;;;;;5005405;28;20131;-80
2023/09/29 11:53:43;;;;;;;8.93;4.10;;;28.90;96.70;;;;;;5006317;28;20115;-80
2023/09/29 11:56:12;;;;;;;5.65;3.83;;;28.90;96.70;;;;;;5004934;28;20141;-79
2023/09/29 11:58:41;;;;;;;8.40;3.60;;;28.90;96.70;;;;;;5004608;28;20042;-79
2023/09/29 12:01:11;;;;;;;6.30;3.72;;;29.00;96.70;;;;;;5007792;28;20072;-80
2023/09/29 12:03:40;;;;;;;8.55;3.92;;;28.90;96.70;;;;;;5008059;28;20069;-80
2023/09/29 12:06:08;;;;;;;5.80;3.75;;;28.90;96.70;;;;;;4989521;28;20057;-79
2023/09/29 12:08:37;;;;;;;10.02;3.40;;;29.00;96.70;;;;;;5005529;28;20050;-81
2023/09/29 12:11:06;;;;;;;4.97;3.25;;;29.00;96.70;;;;;;5005469;28;20042;-80
2023/09/29 12:13:36;;;;;;;8.25;4.20;;;29.10;96.70;;;;;;5006576;28;20508;-81
2023/09/29 12:16:09;;;;;;;8.07;3.70;;;29.20;96.70;;;;;;4985754;28;20042;-80
2023/09/29 12:18:38;;;;;;;4.53;3.70;;;29.40;96.70;;;;;;5005311;28;20061;-81
2023/09/29 12:21:10;;;;;;;5.03;3.05;;;29.50;96.70;;;;;;5005981;28;20443;-82
2023/09/29 12:23:40;;;;;;;8.50;3.83;;;29.60;96.70;;;;;;5004617;28;20076;-80
2023/09/29 12:26:09;;;;;;;6.00;4.18;;;29.70;96.70;;;;;;4985414;28;20463;-80
2023/09/29 12:28:37;;;;;;;5.95;3.60;;;29.80;96.70;;;;;;5000773;28;20452;-79
2023/09/29 12:31:16;;;;;;;6.18;3.88;;;29.80;96.70;;;;;;5004225;28;20050;-79
2023/09/29 12:33:47;;;;;;;7.53;4.07;;;29.80;96.70;;;;;;4988398;28;20053;-78
2023/09/29 12:36:16;;;;;;;7.50;3.85;;;29.80;96.70;;;;;;4997120;28;20050;-80
2023/09/29 12:38:43;;;;;;;6.10;3.70;;;29.70;96.70;;;;;;5003809;28;20088;-80
2023/09/29 12:41:13;;;;;;;4.78;4.10;;;29.70;96.70;;;;;;5006225;28;20052;-79
2023/09/29 12:43:42;;;;;;;6.70;3.50;;;29.80;96.70;;;;;;5004505;28;20045;-79
2023/09/29 12:46:10;;;;;;;8.43;4.20;;;30.00;96.70;;;;;;5006011;28;20049;-78
2023/09/29 12:48:40;;;;;;;5.60;3.67;;;30.00;96.70;;;;;;5005531;28;20045;-80
2023/09/29 12:51:14;;;;;;;5.55;4.00;;;30.00;96.70;;;;;;4981099;28;20144;-80
2023/09/29 12:53:54;;;;;;;4.30;3.03;;;30.10;96.70;;;;;;5003304;28;20053;-79
2023/09/29 12:56:24;;;;;;;4.65;3.15;;;30.30;96.70;;;;;;5004392;28;20042;-79
2023/09/29 12:58:52;;;;;;;8.20;3.75;;;30.40;96.70;;;;;;5005370;28;20084;-80
2023/09/29 13:01:20;;;;;;;7.72;3.80;;;30.40;96.70;;;;;;5003526;28;20050;-80